createdAt,value
2018-01-03T00:00:42.257Z,25.3
2018-01-03T00:01:50.337Z,25.2
2018-01-03T00:02:58.434Z,25.3
2018-01-03T00:04:06.527Z,25.2
2018-01-03T00:05:14.622Z,25.2
2018-01-03T00:06:22.720Z,25.2
2018-01-03T00:07:30.810Z,25.1
2018-01-03T00:08:38.968Z,25.2
2018-01-03T00:09:47.903Z,25.1
2018-01-03T00:10:55.989Z,25.1
2018-01-03T00:12:04.105Z,25.2
2018-01-03T00:13:12.193Z,25.1
2018-01-03T00:14:20.284Z,25.1
2018-01-03T00:15:28.381Z,25.2
2018-01-03T00:16:36.479Z,25.2
2018-01-03T00:17:44.559Z,25.1
2018-01-03T00:18:52.658Z,25.1
2018-01-03T00:20:00.747Z,25.1
2018-01-03T00:21:08.825Z,25.1
2018-01-03T00:22:16.942Z,25.1
2018-01-03T00:23:25.036Z,25.1
2018-01-03T00:24:33.116Z,25.1
2018-01-03T00:25:41.204Z,25.1
2018-01-03T00:26:49.296Z,25.1
2018-01-03T00:27:57.386Z,25.1
2018-01-03T00:29:05.488Z,25.1
2018-01-03T00:30:13.571Z,25.1
2018-01-03T00:31:21.666Z,25.1
2018-01-03T00:32:29.769Z,25.0
2018-01-03T00:33:37.844Z,25.0
2018-01-03T00:34:45.927Z,25.0
2018-01-03T00:35:54.020Z,25.0
2018-01-03T00:37:02.119Z,25.1
2018-01-03T00:38:10.218Z,24.9
2018-01-03T00:39:18.325Z,25.0
2018-01-03T00:40:26.411Z,24.9
2018-01-03T00:41:34.524Z,25.0
2018-01-03T00:42:42.600Z,24.9
2018-01-03T00:43:50.711Z,24.9
2018-01-03T00:44:58.790Z,24.9
2018-01-03T00:46:06.884Z,25.0
2018-01-03T00:47:14.970Z,24.9
2018-01-03T00:48:23.084Z,25.0
2018-01-03T00:49:31.175Z,25.0
2018-01-03T00:50:39.247Z,25.0
2018-01-03T00:51:47.352Z,24.9
2018-01-03T00:52:55.436Z,24.9
2018-01-03T00:54:03.528Z,24.9
2018-01-03T00:55:11.618Z,24.9
2018-01-03T00:56:19.707Z,24.9
2018-01-03T00:57:27.788Z,24.9
2018-01-03T00:58:35.877Z,24.9
2018-01-03T00:59:43.978Z,24.8
2018-01-03T01:00:52.066Z,24.9
2018-01-03T01:02:00.170Z,24.9
2018-01-03T01:03:08.253Z,24.8
2018-01-03T01:04:16.351Z,24.9
2018-01-03T01:05:24.453Z,24.8
2018-01-03T01:06:32.549Z,24.8
2018-01-03T01:07:40.637Z,24.8
2018-01-03T01:08:48.731Z,24.9
2018-01-03T01:09:56.826Z,24.9
2018-01-03T01:11:04.924Z,24.8
2018-01-03T01:12:13.028Z,24.8
2018-01-03T01:13:21.130Z,24.8
2018-01-03T01:14:29.231Z,24.8
2018-01-03T01:15:37.319Z,24.7
2018-01-03T01:16:45.419Z,24.8
2018-01-03T01:17:53.504Z,24.8
2018-01-03T01:19:01.593Z,24.8
2018-01-03T01:20:09.684Z,24.7
2018-01-03T01:21:17.771Z,24.8
2018-01-03T01:22:25.869Z,24.7
2018-01-03T01:23:33.960Z,24.6
2018-01-03T01:24:42.043Z,24.7
2018-01-03T01:25:50.135Z,24.6
2018-01-03T01:26:58.238Z,24.6
2018-01-03T01:28:06.347Z,24.6
2018-01-03T01:29:14.457Z,24.6
2018-01-03T01:30:22.541Z,24.7
2018-01-03T01:31:30.632Z,24.6
2018-01-03T01:32:38.727Z,24.6
2018-01-03T01:33:46.809Z,24.6
2018-01-03T01:34:54.906Z,24.6
2018-01-03T01:36:02.980Z,24.6
2018-01-03T01:37:11.076Z,24.6
2018-01-03T01:38:19.171Z,24.6
2018-01-03T01:39:27.269Z,24.6
2018-01-03T01:40:35.345Z,24.6
2018-01-03T01:41:43.441Z,24.6
2018-01-03T01:42:51.534Z,24.6
2018-01-03T01:43:59.635Z,24.6
2018-01-03T01:45:07.710Z,24.6
2018-01-03T01:46:15.811Z,24.6
2018-01-03T01:47:23.898Z,24.5
2018-01-03T01:48:31.989Z,24.5
2018-01-03T01:49:40.081Z,24.5
2018-01-03T01:50:48.186Z,24.6
2018-01-03T01:51:56.277Z,24.5
2018-01-03T01:53:04.367Z,24.4
2018-01-03T01:54:12.466Z,24.5
2018-01-03T01:55:20.566Z,24.4
2018-01-03T01:56:28.656Z,24.3
2018-01-03T01:57:36.751Z,24.5
2018-01-03T01:58:44.840Z,24.3
2018-01-03T01:59:52.936Z,24.4
2018-01-03T02:01:01.041Z,24.4
2018-01-03T02:02:09.134Z,24.4
2018-01-03T02:03:17.227Z,24.3
2018-01-03T02:04:25.311Z,24.3
2018-01-03T02:05:33.407Z,24.3
2018-01-03T02:06:41.498Z,24.3
2018-01-03T02:07:49.592Z,24.3
2018-01-03T02:08:57.682Z,24.3
2018-01-03T02:10:05.803Z,24.4
2018-01-03T02:11:13.870Z,24.3
2018-01-03T02:12:21.969Z,24.2
2018-01-03T02:13:30.069Z,24.2
2018-01-03T02:14:38.160Z,24.2
2018-01-03T02:15:46.254Z,24.2
2018-01-03T02:16:54.353Z,24.1
2018-01-03T02:18:02.435Z,24.2
2018-01-03T02:19:10.526Z,24.1
2018-01-03T02:20:18.615Z,24.2
2018-01-03T02:21:26.710Z,24.2
2018-01-03T02:22:34.791Z,24.1
2018-01-03T02:23:42.883Z,24.0
2018-01-03T02:24:50.978Z,24.1
2018-01-03T02:25:59.075Z,24.1
2018-01-03T02:27:07.153Z,24.0
2018-01-03T02:28:15.253Z,24.0
2018-01-03T02:29:23.339Z,24.0
2018-01-03T02:30:31.430Z,24.0
2018-01-03T02:31:40.522Z,24.0
2018-01-03T02:32:48.630Z,24.0
2018-01-03T02:33:56.776Z,24.0
2018-01-03T02:35:04.868Z,24.0
2018-01-03T02:36:12.962Z,23.9
2018-01-03T02:37:21.055Z,23.9
2018-01-03T02:38:29.145Z,23.9
2018-01-03T02:39:37.226Z,23.9
2018-01-03T02:40:45.333Z,23.9
2018-01-03T02:41:53.417Z,23.9
2018-01-03T02:43:01.512Z,23.9
2018-01-03T02:44:09.602Z,23.9
2018-01-03T02:45:17.688Z,23.8
2018-01-03T02:46:25.784Z,23.8
2018-01-03T02:47:33.875Z,23.8
2018-01-03T02:48:41.969Z,23.8
2018-01-03T02:49:50.059Z,23.8
2018-01-03T02:50:58.153Z,23.7
2018-01-03T02:52:06.242Z,23.7
2018-01-03T02:53:14.351Z,23.8
2018-01-03T02:54:22.454Z,23.7
2018-01-03T02:55:30.539Z,23.7
2018-01-03T02:56:38.620Z,23.6
2018-01-03T02:57:46.708Z,23.6
2018-01-03T02:58:54.794Z,23.6
2018-01-03T03:00:02.881Z,23.7
2018-01-03T03:01:10.965Z,23.7
2018-01-03T03:02:19.056Z,23.7
2018-01-03T03:03:27.138Z,23.6
2018-01-03T03:04:35.300Z,23.6
2018-01-03T03:05:43.391Z,23.6
2018-01-03T03:06:51.490Z,23.5
2018-01-03T03:07:59.576Z,23.6
2018-01-03T03:09:07.658Z,23.4
2018-01-03T03:10:15.764Z,23.5
2018-01-03T03:11:23.857Z,23.4
2018-01-03T03:12:31.937Z,23.5
2018-01-03T03:13:40.033Z,23.5
2018-01-03T03:14:48.163Z,23.4
2018-01-03T03:15:56.216Z,23.4
2018-01-03T03:17:04.309Z,23.5
2018-01-03T03:18:12.945Z,23.3
2018-01-03T03:19:21.031Z,23.4
2018-01-03T03:20:29.110Z,23.4
2018-01-03T03:21:37.200Z,23.4
2018-01-03T03:22:45.292Z,23.3
2018-01-03T03:23:53.384Z,23.3
2018-01-03T03:25:01.471Z,23.3
2018-01-03T03:26:09.562Z,23.3
2018-01-03T03:27:17.649Z,23.3
2018-01-03T03:28:25.733Z,23.3
2018-01-03T03:29:33.823Z,23.2
2018-01-03T03:30:41.915Z,23.3
2018-01-03T03:31:49.996Z,23.3
2018-01-03T03:32:58.087Z,23.3
2018-01-03T03:34:06.181Z,23.2
2018-01-03T03:35:14.278Z,23.3
2018-01-03T03:36:22.371Z,23.1
2018-01-03T03:37:30.448Z,23.2
2018-01-03T03:38:38.531Z,23.2
2018-01-03T03:39:46.628Z,23.1
2018-01-03T03:40:54.721Z,23.2
2018-01-03T03:42:02.825Z,23.2
2018-01-03T03:43:10.910Z,23.1
2018-01-03T03:44:19.014Z,23.1
2018-01-03T03:45:27.121Z,23.1
2018-01-03T03:46:35.194Z,23.1
2018-01-03T03:47:43.280Z,23.1
2018-01-03T03:48:51.374Z,23.1
2018-01-03T03:49:59.460Z,23.1
2018-01-03T03:51:07.550Z,23.0
2018-01-03T03:52:15.652Z,23.0
2018-01-03T03:53:23.722Z,23.0
2018-01-03T03:54:31.808Z,22.9
2018-01-03T03:55:39.904Z,22.9
2018-01-03T03:56:47.992Z,22.8
2018-01-03T03:57:56.096Z,22.9
2018-01-03T03:59:04.183Z,22.9
2018-01-03T04:00:12.276Z,22.8
2018-01-03T04:01:20.374Z,22.8
2018-01-03T04:02:28.463Z,22.8
2018-01-03T04:03:36.559Z,22.8
2018-01-03T04:04:44.726Z,22.8
2018-01-03T04:05:52.822Z,22.8
2018-01-03T04:07:00.912Z,22.7
2018-01-03T04:08:09.007Z,22.7
2018-01-03T04:09:17.118Z,22.8
2018-01-03T04:10:25.209Z,22.8
2018-01-03T04:11:33.316Z,22.7
2018-01-03T04:12:41.495Z,22.8
2018-01-03T04:13:49.487Z,22.7
2018-01-03T04:14:57.576Z,22.7
2018-01-03T04:16:05.671Z,22.7
2018-01-03T04:17:13.761Z,22.6
2018-01-03T04:18:21.842Z,22.6
2018-01-03T04:19:29.930Z,22.6
2018-01-03T04:20:38.022Z,22.6
2018-01-03T04:21:46.122Z,22.6
2018-01-03T04:22:54.216Z,22.6
2018-01-03T04:24:02.320Z,22.5
2018-01-03T04:25:11.077Z,22.6
2018-01-03T04:26:19.173Z,22.6
2018-01-03T04:27:27.264Z,22.6
2018-01-03T04:28:35.342Z,22.6
2018-01-03T04:29:43.430Z,22.6
2018-01-03T04:30:51.930Z,22.5
2018-01-03T04:32:00.012Z,22.5
2018-01-03T04:33:08.104Z,22.5
2018-01-03T04:34:16.193Z,22.5
2018-01-03T04:35:24.283Z,22.5
2018-01-03T04:36:32.374Z,22.5
2018-01-03T04:37:40.462Z,22.4
2018-01-03T04:38:48.548Z,22.5
2018-01-03T04:39:56.665Z,22.4
2018-01-03T04:41:04.734Z,22.3
2018-01-03T04:42:12.826Z,22.4
2018-01-03T04:43:20.905Z,22.4
2018-01-03T04:44:29.014Z,22.4
2018-01-03T04:45:37.100Z,22.3
2018-01-03T04:46:45.187Z,22.3
2018-01-03T04:47:53.265Z,22.3
2018-01-03T04:49:01.360Z,22.3
2018-01-03T04:50:09.440Z,22.2
2018-01-03T04:51:17.551Z,22.3
2018-01-03T04:52:25.620Z,22.2
2018-01-03T04:53:33.705Z,22.2
2018-01-03T04:54:41.807Z,22.2
2018-01-03T04:55:49.880Z,22.2
2018-01-03T04:56:57.967Z,22.2
2018-01-03T04:58:06.050Z,22.2
2018-01-03T04:59:14.146Z,22.1
2018-01-03T05:00:22.232Z,22.1
2018-01-03T05:01:30.450Z,22.1
2018-01-03T05:02:38.546Z,22.0
2018-01-03T05:03:46.636Z,22.1
2018-01-03T05:04:54.737Z,22.1
2018-01-03T05:06:02.824Z,22.0
2018-01-03T05:07:10.913Z,22.0
2018-01-03T05:08:19.000Z,22.0
2018-01-03T05:09:27.095Z,21.9
2018-01-03T05:10:35.849Z,22.0
2018-01-03T05:11:43.939Z,22.1
2018-01-03T05:12:52.010Z,22.0
2018-01-03T05:14:00.106Z,22.0
2018-01-03T05:15:08.195Z,21.9
2018-01-03T05:16:16.286Z,21.9
2018-01-03T05:17:24.376Z,21.9
2018-01-03T05:18:32.479Z,21.8
2018-01-03T05:19:40.564Z,21.9
2018-01-03T05:20:48.644Z,21.8
2018-01-03T05:21:56.733Z,21.8
2018-01-03T05:23:04.821Z,21.8
2018-01-03T05:24:12.914Z,21.8
2018-01-03T05:25:21.011Z,21.8
2018-01-03T05:26:29.109Z,21.8
2018-01-03T05:27:37.185Z,21.8
2018-01-03T05:28:45.281Z,21.8
2018-01-03T05:29:53.361Z,21.7
2018-01-03T05:31:01.454Z,21.7
2018-01-03T05:32:09.555Z,21.7
2018-01-03T05:33:17.644Z,21.7
2018-01-03T05:34:25.727Z,21.7
2018-01-03T05:35:33.822Z,21.7
2018-01-03T05:36:41.910Z,21.6
2018-01-03T05:37:50.001Z,21.7
2018-01-03T05:38:58.085Z,21.7
2018-01-03T05:40:06.202Z,21.6
2018-01-03T05:41:14.263Z,21.5
2018-01-03T05:42:22.343Z,21.6
2018-01-03T05:43:30.440Z,21.6
2018-01-03T05:44:38.535Z,21.6
2018-01-03T05:45:46.626Z,21.6
2018-01-03T05:46:54.709Z,21.6
2018-01-03T05:48:02.804Z,21.7
2018-01-03T05:49:10.892Z,21.6
2018-01-03T05:50:18.982Z,21.5
2018-01-03T05:51:27.064Z,21.6
2018-01-03T05:52:35.167Z,21.6
2018-01-03T05:53:43.263Z,21.5
2018-01-03T05:54:51.354Z,21.5
2018-01-03T05:55:59.434Z,21.5
2018-01-03T05:57:07.520Z,21.5
2018-01-03T05:58:15.617Z,21.5
2018-01-03T05:59:23.709Z,21.5
2018-01-03T06:00:31.811Z,21.5
2018-01-03T06:01:39.894Z,21.4
2018-01-03T06:02:47.985Z,21.4
2018-01-03T06:03:56.071Z,21.4
2018-01-03T06:05:04.163Z,21.4
2018-01-03T06:06:12.257Z,21.4
2018-01-03T06:07:20.347Z,21.4
2018-01-03T06:08:28.444Z,21.3
2018-01-03T06:09:36.546Z,21.3
2018-01-03T06:10:44.629Z,21.4
2018-01-03T06:11:52.714Z,21.3
2018-01-03T06:13:00.814Z,21.3
2018-01-03T06:14:08.907Z,21.3
2018-01-03T06:15:16.987Z,21.3
2018-01-03T06:16:25.074Z,21.2
2018-01-03T06:17:33.165Z,21.2
2018-01-03T06:18:41.254Z,21.2
2018-01-03T06:19:49.342Z,21.2
2018-01-03T06:20:57.424Z,21.2
2018-01-03T06:22:05.551Z,21.2
2018-01-03T06:23:13.640Z,21.2
2018-01-03T06:24:21.717Z,21.2
2018-01-03T06:25:29.815Z,21.1
2018-01-03T06:26:37.915Z,21.1
2018-01-03T06:27:45.993Z,21.1
2018-01-03T06:28:54.250Z,21.1
2018-01-03T06:30:02.520Z,21.1
2018-01-03T06:31:10.604Z,21.0
2018-01-03T06:32:18.691Z,21.0
2018-01-03T06:33:26.788Z,21.1
2018-01-03T06:34:34.877Z,21.0
2018-01-03T06:35:42.981Z,21.0
2018-01-03T06:36:51.083Z,21.1
2018-01-03T06:37:59.175Z,21.0
2018-01-03T06:39:07.262Z,21.1
2018-01-03T06:40:15.356Z,21.0
2018-01-03T06:41:23.438Z,21.0
2018-01-03T06:42:31.532Z,20.9
2018-01-03T06:43:39.621Z,21.0
2018-01-03T06:44:47.714Z,20.9
2018-01-03T06:45:55.814Z,20.9
2018-01-03T06:47:03.901Z,20.9
2018-01-03T06:48:11.991Z,20.9
2018-01-03T06:49:20.072Z,20.9
2018-01-03T06:50:28.157Z,20.9
2018-01-03T06:51:36.245Z,20.9
2018-01-03T06:52:44.352Z,20.9
2018-01-03T06:53:52.448Z,20.8
2018-01-03T06:55:00.542Z,20.9
2018-01-03T06:56:08.634Z,20.7
2018-01-03T06:57:16.718Z,20.8
2018-01-03T06:58:24.798Z,20.8
2018-01-03T06:59:32.892Z,20.8
2018-01-03T07:00:40.977Z,20.7
2018-01-03T07:01:49.073Z,20.7
2018-01-03T07:02:57.153Z,20.8
2018-01-03T07:04:05.238Z,20.8
2018-01-03T07:05:13.318Z,20.8
2018-01-03T07:06:21.409Z,20.7
2018-01-03T07:07:29.516Z,20.7
2018-01-03T07:08:37.606Z,20.7
2018-01-03T07:09:45.688Z,20.7
2018-01-03T07:10:53.776Z,20.7
2018-01-03T07:12:01.859Z,20.7
2018-01-03T07:13:09.952Z,20.7
2018-01-03T07:14:18.049Z,20.7
2018-01-03T07:15:26.138Z,20.6
2018-01-03T07:16:34.218Z,20.7
2018-01-03T07:17:42.307Z,20.6
2018-01-03T07:18:50.402Z,20.6
2018-01-03T07:19:58.486Z,20.6
2018-01-03T07:21:06.581Z,20.5
2018-01-03T07:22:14.672Z,20.5
2018-01-03T07:23:22.761Z,20.6
2018-01-03T07:24:30.850Z,20.5
2018-01-03T07:25:38.946Z,20.5
2018-01-03T07:26:47.021Z,20.5
2018-01-03T07:27:55.121Z,20.5
2018-01-03T07:29:03.207Z,20.6
2018-01-03T07:30:11.305Z,20.5
2018-01-03T07:31:19.381Z,20.5
2018-01-03T07:32:27.475Z,20.5
2018-01-03T07:33:35.555Z,20.5
2018-01-03T07:34:43.650Z,20.5
2018-01-03T07:35:51.750Z,20.5
2018-01-03T07:36:59.828Z,20.5
2018-01-03T07:38:07.917Z,20.4
2018-01-03T07:39:16.003Z,20.5
2018-01-03T07:40:24.787Z,20.4
2018-01-03T07:41:32.875Z,20.5
2018-01-03T07:42:40.958Z,20.6
2018-01-03T07:43:49.045Z,20.5
2018-01-03T07:44:57.149Z,20.5
2018-01-03T07:46:05.235Z,20.3
2018-01-03T07:47:13.318Z,20.3
2018-01-03T07:48:23.788Z,20.4
2018-01-03T07:49:32.096Z,20.3
2018-01-03T07:50:40.191Z,20.3
2018-01-03T07:51:48.947Z,20.3
2018-01-03T07:52:57.034Z,20.4
2018-01-03T07:54:05.119Z,20.4
2018-01-03T07:55:13.213Z,20.3
2018-01-03T07:56:21.304Z,20.3
2018-01-03T07:57:29.401Z,20.3
2018-01-03T07:58:37.491Z,20.3
2018-01-03T07:59:45.574Z,20.2
2018-01-03T08:00:53.667Z,20.3
2018-01-03T08:02:01.768Z,20.3
2018-01-03T08:03:09.903Z,20.3
2018-01-03T08:04:17.975Z,20.3
2018-01-03T08:05:26.017Z,20.2
2018-01-03T08:06:34.113Z,20.3
2018-01-03T08:07:42.205Z,20.3
2018-01-03T08:08:50.304Z,20.3
2018-01-03T08:09:58.549Z,20.2
2018-01-03T08:11:06.471Z,20.2
2018-01-03T08:12:14.553Z,20.3
2018-01-03T08:13:22.639Z,20.1
2018-01-03T08:14:30.722Z,20.2
2018-01-03T08:15:38.949Z,20.1
2018-01-03T08:16:46.900Z,20.2
2018-01-03T08:17:54.981Z,20.2
2018-01-03T08:19:03.076Z,20.2
2018-01-03T08:20:11.571Z,20.2
2018-01-03T08:21:19.258Z,20.2
2018-01-03T08:22:27.344Z,20.1
2018-01-03T08:23:35.432Z,20.2
2018-01-03T08:24:43.527Z,20.1
2018-01-03T08:25:51.603Z,20.1
2018-01-03T08:26:59.697Z,20.1
2018-01-03T08:28:07.784Z,20.1
2018-01-03T08:29:15.868Z,20.1
2018-01-03T08:30:23.948Z,20.1
2018-01-03T08:31:32.044Z,20.1
2018-01-03T08:32:40.134Z,20.1
2018-01-03T08:33:48.217Z,20.0
2018-01-03T08:34:56.306Z,20.1
2018-01-03T08:36:04.574Z,20.0
2018-01-03T08:37:12.491Z,20.1
2018-01-03T08:38:20.579Z,20.1
2018-01-03T08:39:28.670Z,20.0
2018-01-03T08:40:36.791Z,20.0
2018-01-03T08:41:45.014Z,20.0
2018-01-03T08:42:52.948Z,20.0
2018-01-03T08:44:02.057Z,20.0
2018-01-03T08:45:09.114Z,20.0
2018-01-03T08:46:17.224Z,19.9
2018-01-03T08:47:25.319Z,20.0
2018-01-03T08:48:33.396Z,20.0
2018-01-03T08:49:41.494Z,20.0
2018-01-03T08:50:49.586Z,20.0
2018-01-03T08:51:57.676Z,20.0
2018-01-03T08:53:05.766Z,20.0
2018-01-03T08:54:13.849Z,20.1
2018-01-03T08:55:21.937Z,20.0
2018-01-03T08:56:30.025Z,20.0
2018-01-03T08:57:38.122Z,20.0
2018-01-03T08:58:46.215Z,20.0
2018-01-03T08:59:54.310Z,20.0
2018-01-03T09:01:02.399Z,20.0
2018-01-03T09:02:10.494Z,20.0
2018-01-03T09:03:18.580Z,20.0
2018-01-03T09:04:26.669Z,20.0
2018-01-03T09:05:34.749Z,20.0
2018-01-03T09:06:42.938Z,20.0
2018-01-03T09:07:50.931Z,20.0
2018-01-03T09:08:59.014Z,20.1
2018-01-03T09:10:07.127Z,20.0
2018-01-03T09:11:15.196Z,20.0
2018-01-03T09:12:23.290Z,20.1
2018-01-03T09:13:31.390Z,20.1
2018-01-03T09:14:39.478Z,20.0
2018-01-03T09:15:47.560Z,20.0
2018-01-03T09:16:55.648Z,20.0
2018-01-03T09:18:03.741Z,20.0
2018-01-03T09:19:11.844Z,20.1
2018-01-03T09:20:19.928Z,20.1
2018-01-03T09:21:28.018Z,20.0
2018-01-03T09:22:36.098Z,20.1
2018-01-03T09:23:44.197Z,20.1
2018-01-03T09:24:52.285Z,20.1
2018-01-03T09:26:00.369Z,20.1
2018-01-03T09:27:08.464Z,20.0
2018-01-03T09:28:16.543Z,20.1
2018-01-03T09:29:24.640Z,20.0
2018-01-03T09:30:32.721Z,20.1
2018-01-03T09:31:40.810Z,20.0
2018-01-03T09:32:48.897Z,20.1
2018-01-03T09:35:05.077Z,20.1
2018-01-03T09:36:13.166Z,20.2
2018-01-03T09:37:21.246Z,20.2
2018-01-03T09:38:29.332Z,20.2
2018-01-03T09:39:37.432Z,20.3
2018-01-03T09:40:45.518Z,20.2
2018-01-03T09:41:53.608Z,20.2
2018-01-03T09:43:01.693Z,20.2
2018-01-03T09:44:09.784Z,20.1
2018-01-03T09:45:17.876Z,20.3
2018-01-03T09:46:25.966Z,20.1
2018-01-03T09:47:34.060Z,20.3
2018-01-03T09:48:42.144Z,20.2
2018-01-03T09:49:50.233Z,20.2
2018-01-03T09:50:58.333Z,20.2
2018-01-03T09:52:06.431Z,20.3
2018-01-03T09:53:14.525Z,20.3
2018-01-03T09:54:22.613Z,20.4
2018-01-03T09:55:30.699Z,20.4
2018-01-03T09:56:38.794Z,20.4
2018-01-03T09:57:46.888Z,20.3
2018-01-03T09:58:54.977Z,20.3
2018-01-03T10:00:03.067Z,20.4
2018-01-03T10:01:11.163Z,20.3
2018-01-03T10:02:19.487Z,20.4
2018-01-03T10:03:27.339Z,20.4
2018-01-03T10:04:35.425Z,20.5
2018-01-03T10:05:43.541Z,20.4
2018-01-03T10:06:51.592Z,20.4
2018-01-03T10:07:59.691Z,20.5
2018-01-03T10:09:07.771Z,20.6
2018-01-03T10:10:15.886Z,20.5
2018-01-03T10:11:23.942Z,20.6
2018-01-03T10:12:32.033Z,20.6
2018-01-03T10:13:40.129Z,20.7
2018-01-03T10:14:48.220Z,20.6
2018-01-03T10:15:56.314Z,20.7
2018-01-03T10:17:04.470Z,20.7
2018-01-03T10:18:12.701Z,20.7
2018-01-03T10:19:20.587Z,20.8
2018-01-03T10:20:28.673Z,20.8
2018-01-03T10:21:36.767Z,20.8
2018-01-03T10:22:44.855Z,20.9
2018-01-03T10:23:52.945Z,20.8
2018-01-03T10:25:01.057Z,20.8
2018-01-03T10:26:09.138Z,20.9
2018-01-03T10:27:17.219Z,20.9
2018-01-03T10:28:25.315Z,21.0
2018-01-03T10:29:33.568Z,20.9
2018-01-03T10:30:41.629Z,21.0
2018-01-03T10:31:49.735Z,21.0
2018-01-03T10:32:57.828Z,21.0
2018-01-03T10:34:05.915Z,21.1
2018-01-03T10:35:13.995Z,21.1
2018-01-03T10:36:22.091Z,21.1
2018-01-03T10:37:30.182Z,21.1
2018-01-03T10:38:38.274Z,21.1
2018-01-03T10:39:46.376Z,21.1
2018-01-03T10:40:54.450Z,21.1
2018-01-03T10:42:02.539Z,21.2
2018-01-03T10:43:10.632Z,21.1
2018-01-03T10:44:18.728Z,21.2
2018-01-03T10:45:27.049Z,21.3
2018-01-03T10:46:35.098Z,21.2
2018-01-03T10:47:43.223Z,21.3
2018-01-03T10:48:51.267Z,21.2
2018-01-03T10:49:59.356Z,21.4
2018-01-03T10:51:07.449Z,21.3
2018-01-03T10:52:15.383Z,21.3
2018-01-03T10:53:23.464Z,21.4
2018-01-03T10:54:32.718Z,21.4
2018-01-03T10:55:45.238Z,21.5
2018-01-03T10:56:53.331Z,21.5
2018-01-03T10:58:03.553Z,21.4
2018-01-03T10:59:11.627Z,21.5
2018-01-03T11:00:19.711Z,21.5
2018-01-03T11:01:27.803Z,21.5
2018-01-03T11:02:35.889Z,21.5
2018-01-03T11:03:43.984Z,21.5
2018-01-03T11:04:52.065Z,21.5
2018-01-03T11:06:00.260Z,21.6
2018-01-03T11:07:08.357Z,21.7
2018-01-03T11:08:16.460Z,21.6
2018-01-03T11:09:24.547Z,21.6
2018-01-03T11:10:32.635Z,21.6
2018-01-03T11:11:40.727Z,21.7
2018-01-03T11:12:48.819Z,21.6
2018-01-03T11:13:56.912Z,21.5
2018-01-03T11:15:05.013Z,21.6
2018-01-03T11:16:13.176Z,21.7
2018-01-03T11:17:21.220Z,21.6
2018-01-03T11:18:36.706Z,21.6
2018-01-03T11:19:44.690Z,21.7
2018-01-03T11:20:52.793Z,21.6
2018-01-03T11:22:01.060Z,21.7
2018-01-03T11:23:09.126Z,21.7
2018-01-03T11:24:17.239Z,21.7
2018-01-03T11:25:25.190Z,21.7
2018-01-03T11:26:39.922Z,21.7
2018-01-03T11:27:52.012Z,21.7
2018-01-03T11:28:56.351Z,21.7
2018-01-03T11:30:04.418Z,21.7
2018-01-03T11:31:26.758Z,21.7
2018-01-03T11:32:39.358Z,21.8
2018-01-03T11:33:47.448Z,21.8
2018-01-03T11:34:55.546Z,21.8
2018-01-03T11:36:03.866Z,21.8
2018-01-03T11:37:11.914Z,21.8
2018-01-03T11:38:20.003Z,21.8
2018-01-03T11:39:28.100Z,21.8
2018-01-03T11:40:36.188Z,21.8
2018-01-03T11:41:44.281Z,21.9
2018-01-03T11:42:52.381Z,21.9
2018-01-03T11:44:00.468Z,21.9
2018-01-03T11:45:08.556Z,21.9
2018-01-03T11:46:16.646Z,21.9
2018-01-03T11:47:24.728Z,21.9
2018-01-03T11:48:32.826Z,21.8
2018-01-03T11:49:40.917Z,21.9
2018-01-03T11:50:49.003Z,21.9
2018-01-03T11:51:57.091Z,21.9
2018-01-03T11:53:05.181Z,21.9
2018-01-03T11:54:13.273Z,21.9
2018-01-03T11:55:21.363Z,21.9
2018-01-03T11:56:29.447Z,21.9
2018-01-03T11:57:38.668Z,22.0
2018-01-03T11:58:46.758Z,22.0
2018-01-03T11:59:54.908Z,22.0
2018-01-03T12:01:02.924Z,22.0
2018-01-03T12:02:11.015Z,21.9
2018-01-03T12:03:19.108Z,22.0
2018-01-03T12:04:27.185Z,22.0
2018-01-03T12:05:35.283Z,22.0
2018-01-03T12:06:43.379Z,22.1
2018-01-03T12:07:51.453Z,22.1
2018-01-03T12:08:59.548Z,22.1
2018-01-03T12:10:07.634Z,22.0
2018-01-03T12:11:15.891Z,22.0
2018-01-03T12:12:23.884Z,22.1
2018-01-03T12:13:31.974Z,22.1
2018-01-03T12:14:40.060Z,22.1
2018-01-03T12:15:48.140Z,22.1
2018-01-03T12:16:56.233Z,22.1
2018-01-03T12:18:04.316Z,22.1
2018-01-03T12:19:12.402Z,22.0
2018-01-03T12:20:20.503Z,22.1
2018-01-03T12:21:28.589Z,22.1
2018-01-03T12:22:36.678Z,22.1
2018-01-03T12:23:44.767Z,22.1
2018-01-03T12:24:52.848Z,22.2
2018-01-03T12:26:00.936Z,22.1
2018-01-03T12:27:09.028Z,22.2
2018-01-03T12:28:17.111Z,22.2
2018-01-03T12:29:25.205Z,22.2
2018-01-03T12:30:33.282Z,22.3
2018-01-03T12:31:41.394Z,22.2
2018-01-03T12:32:49.462Z,22.2
2018-01-03T12:33:57.540Z,22.2
2018-01-03T12:35:05.630Z,22.3
2018-01-03T12:36:13.720Z,22.2
2018-01-03T12:37:22.611Z,22.3
2018-01-03T12:38:30.696Z,22.2
2018-01-03T12:39:38.781Z,22.2
2018-01-03T12:40:47.065Z,22.4
2018-01-03T12:41:55.155Z,22.2
2018-01-03T12:43:03.251Z,22.3
2018-01-03T12:44:11.236Z,22.3
2018-01-03T12:45:19.453Z,22.2
2018-01-03T12:46:27.305Z,22.2
2018-01-03T12:47:40.145Z,22.3
2018-01-03T12:48:48.494Z,22.2
2018-01-03T12:49:56.559Z,22.2
2018-01-03T12:51:04.449Z,22.3
2018-01-03T12:52:12.491Z,22.3
2018-01-03T12:53:21.090Z,22.3
2018-01-03T12:54:28.662Z,22.4
2018-01-03T12:55:39.458Z,22.4
2018-01-03T12:56:47.214Z,22.4
2018-01-03T12:57:55.316Z,22.4
2018-01-03T12:59:03.495Z,22.4
2018-01-03T13:00:11.487Z,22.4
2018-01-03T13:01:19.588Z,22.4
2018-01-03T13:02:27.674Z,22.4
2018-01-03T13:03:35.765Z,22.4
2018-01-03T13:04:43.847Z,22.4
2018-01-03T13:05:52.743Z,22.5
2018-01-03T13:07:04.069Z,22.4
2018-01-03T13:08:09.332Z,22.4
2018-01-03T13:09:17.426Z,22.5
2018-01-03T13:10:25.516Z,22.6
2018-01-03T13:11:33.606Z,22.6
2018-01-03T13:12:41.697Z,22.5
2018-01-03T13:13:49.782Z,22.5
2018-01-03T13:14:57.960Z,22.5
2018-01-03T13:16:06.037Z,22.5
2018-01-03T13:17:14.127Z,22.5
2018-01-03T13:18:22.212Z,22.5
2018-01-03T13:19:30.287Z,22.5
2018-01-03T13:20:38.382Z,22.5
2018-01-03T13:21:46.464Z,22.5
2018-01-03T13:22:54.559Z,22.5
2018-01-03T13:24:06.148Z,22.5
2018-01-03T13:25:14.236Z,22.5
2018-01-03T13:26:22.334Z,22.6
2018-01-03T13:27:30.417Z,22.6
2018-01-03T13:28:38.502Z,22.6
2018-01-03T13:29:46.591Z,22.5
2018-01-03T13:30:54.701Z,22.6
2018-01-03T13:32:02.758Z,22.6
2018-01-03T13:33:10.852Z,22.6
2018-01-03T13:34:18.938Z,22.6
2018-01-03T13:35:27.041Z,22.6
2018-01-03T13:36:35.115Z,22.6
2018-01-03T13:37:43.205Z,22.6
2018-01-03T13:38:51.297Z,22.6
2018-01-03T13:39:59.385Z,22.6
2018-01-03T13:41:07.478Z,22.6
2018-01-03T13:42:15.572Z,22.6
2018-01-03T13:43:23.879Z,22.6
2018-01-03T13:44:31.961Z,22.6
2018-01-03T13:45:40.051Z,22.6
2018-01-03T13:46:48.138Z,22.6
2018-01-03T13:47:56.369Z,22.6
2018-01-03T13:49:04.360Z,22.6
2018-01-03T13:50:12.454Z,22.6
2018-01-03T13:51:20.542Z,22.7
2018-01-03T13:52:28.622Z,22.6
2018-01-03T13:53:36.709Z,22.6
2018-01-03T13:54:44.790Z,22.6
2018-01-03T13:55:52.891Z,22.6
2018-01-03T13:57:08.224Z,22.6
2018-01-03T13:58:16.433Z,22.7
2018-01-03T13:59:26.368Z,22.6
2018-01-03T14:00:34.468Z,22.6
2018-01-03T14:01:42.555Z,22.8
2018-01-03T14:02:50.655Z,22.7
2018-01-03T14:03:58.743Z,22.8
2018-01-03T14:05:07.086Z,22.8
2018-01-03T14:06:15.194Z,22.7
2018-01-03T14:07:23.280Z,22.8
2018-01-03T14:08:31.381Z,22.7
2018-01-03T14:09:39.470Z,22.8
2018-01-03T14:10:47.780Z,22.8
2018-01-03T14:11:59.626Z,22.7
2018-01-03T14:13:07.707Z,22.8
2018-01-03T14:14:15.793Z,22.8
2018-01-03T14:15:23.884Z,22.8
2018-01-03T14:16:31.976Z,22.8
2018-01-03T14:17:40.066Z,22.8
2018-01-03T14:18:48.154Z,22.7
2018-01-03T14:19:56.245Z,22.8
2018-01-03T14:21:04.377Z,22.8
2018-01-03T14:22:12.438Z,22.9
2018-01-03T14:23:20.638Z,22.8
2018-01-03T14:24:28.758Z,22.8
2018-01-03T14:25:36.821Z,22.8
2018-01-03T14:26:44.910Z,22.9
2018-01-03T14:27:53.000Z,22.8
2018-01-03T14:29:01.098Z,22.7
2018-01-03T14:30:09.182Z,22.8
2018-01-03T14:31:17.270Z,22.8
2018-01-03T14:32:27.806Z,22.8
2018-01-03T14:33:37.936Z,22.8
2018-01-03T14:34:44.578Z,22.9
2018-01-03T14:35:52.684Z,22.9
2018-01-03T14:37:00.770Z,22.9
2018-01-03T14:38:11.575Z,22.8
2018-01-03T14:39:19.578Z,22.8
2018-01-03T14:40:27.662Z,22.9
2018-01-03T14:41:35.743Z,22.9
2018-01-03T14:42:43.827Z,22.8
2018-01-03T14:43:51.915Z,22.8
2018-01-03T14:45:00.253Z,22.9
2018-01-03T14:46:08.365Z,22.9
2018-01-03T14:47:16.432Z,22.8
2018-01-03T14:48:24.520Z,22.9
2018-01-03T14:49:32.604Z,22.9
2018-01-03T14:50:40.695Z,23.0
2018-01-03T14:51:48.790Z,22.9
2018-01-03T14:52:56.871Z,23.0
2018-01-03T14:54:04.953Z,23.0
2018-01-03T14:55:13.042Z,22.8
2018-01-03T14:56:21.125Z,23.0
2018-01-03T14:57:29.226Z,22.9
2018-01-03T14:58:37.351Z,22.9
2018-01-03T14:59:45.392Z,23.0
2018-01-03T15:00:53.491Z,23.0
2018-01-03T15:02:01.574Z,22.9
2018-01-03T15:03:09.653Z,23.0
2018-01-03T15:04:17.750Z,23.0
2018-01-03T15:05:25.847Z,22.9
2018-01-03T15:06:33.922Z,22.9
2018-01-03T15:07:42.006Z,23.0
2018-01-03T15:08:50.229Z,23.0